Time;durP1;ratioP1;P1;durP2;ratioP2;P2;SDS_P1;SDS_P2;PMS_P1;PMS_P2;Temp;Humidity;BMP_temperature;BMP_pressure;BME280_temperature;BME280_humidity;BME280_pressure;Samples;Min_cycle;Max_cycle;Signal;HPM_P1;HPM_P2
2021/07/02 00:00:12;;;;;;;4.93;1.77;;;21.40;74.10;21.30;99672.00;;;;344286;28;96464;-92
2021/07/02 00:00:24;;;;;;;3.80;1.90;;;21.40;74.20;21.30;99671.00;;;;343912;28;91424;-92
2021/07/02 00:00:36;;;;;;;3.67;2.03;;;21.40;74.30;21.30;99672.00;;;;341369;28;97343;-92
2021/07/02 00:00:48;;;;;;;3.50;1.85;;;21.40;74.40;21.30;99672.00;;;;341165;28;91908;-92
2021/07/02 00:01:00;;;;;;;4.45;2.17;;;21.40;74.40;21.30;99673.00;;;;342879;28;94284;-92
2021/07/02 00:01:11;;;;;;;4.05;2.33;;;21.40;74.40;21.30;99672.00;;;;342710;28;91892;-93
2021/07/02 00:01:23;;;;;;;3.30;2.13;;;21.40;74.30;21.40;99668.00;;;;344135;28;95624;-92
2021/07/02 00:01:39;;;;;;;4.20;1.95;;;21.40;74.20;21.40;99671.00;;;;342410;28;92387;-93
2021/07/02 00:01:51;;;;;;;5.55;2.00;;;21.40;74.20;21.20;99665.00;;;;343966;28;97064;-93
2021/07/02 00:02:04;;;;;;;4.72;2.25;;;21.40;74.30;21.30;99673.00;;;;343926;28;91331;-92
2021/07/02 00:02:16;;;;;;;4.47;2.10;;;21.40;74.30;21.40;99670.00;;;;342765;28;95772;-92
2021/07/02 00:02:28;;;;;;;4.43;2.08;;;21.40;74.40;21.30;99662.00;;;;341154;28;92096;-91
2021/07/02 00:02:40;;;;;;;4.35;2.00;;;21.40;74.60;21.10;99669.00;;;;341619;28;94016;-92
2021/07/02 00:02:51;;;;;;;5.00;2.25;;;21.40;74.40;21.10;99657.00;;;;341331;28;91907;-93
2021/07/02 00:03:03;;;;;;;4.40;2.15;;;21.40;74.20;21.20;99668.00;;;;341366;28;94230;-93
2021/07/02 00:03:15;;;;;;;3.95;2.00;;;21.40;74.20;21.30;99672.00;;;;342746;28;91943;-93
2021/07/02 00:03:27;;;;;;;3.28;1.90;;;21.40;74.40;21.30;99669.00;;;;343852;28;94034;-92
2021/07/02 00:03:39;;;;;;;3.75;1.98;;;21.40;74.40;21.40;99666.00;;;;344029;28;91981;-92
2021/07/02 00:03:51;;;;;;;3.53;1.90;;;21.40;74.40;21.30;99672.00;;;;341510;28;93996;-93
2021/07/02 00:04:04;;;;;;;2.83;2.05;;;21.40;74.30;21.20;99669.00;;;;342754;28;90374;-93
2021/07/02 00:04:16;;;;;;;3.08;1.90;;;21.40;74.30;21.30;99671.00;;;;342765;28;93963;-92
2021/07/02 00:04:27;;;;;;;4.22;2.03;;;21.40;74.50;21.30;99670.00;;;;340065;28;90948;-92
2021/07/02 00:04:39;;;;;;;3.50;1.77;;;21.40;74.50;21.20;99672.00;;;;338937;28;92697;-92
2021/07/02 00:04:51;;;;;;;2.53;1.65;;;21.40;74.40;21.20;99666.00;;;;340244;28;91871;-92
2021/07/02 00:05:04;;;;;;;2.75;1.63;;;21.40;74.30;21.30;99670.00;;;;342678;28;96072;-93
2021/07/02 00:05:16;;;;;;;3.05;1.88;;;21.40;74.40;21.40;99667.00;;;;341435;28;92038;-93
2021/07/02 00:05:28;;;;;;;2.97;2.05;;;21.40;74.50;21.40;99671.00;;;;342163;28;96096;-92
2021/07/02 00:05:40;;;;;;;2.50;1.88;;;21.40;74.40;21.30;99679.00;;;;342649;28;92107;-91
2021/07/02 00:05:51;;;;;;;2.90;2.20;;;21.40;74.40;21.40;99672.00;;;;342821;28;93942;-93
2021/07/02 00:06:06;;;;;;;3.40;2.20;;;21.40;75.00;21.50;99670.00;;;;345187;28;91364;-92
2021/07/02 00:06:17;;;;;;;4.40;2.20;;;21.40;74.20;21.40;99677.00;;;;342671;28;93355;-91
2021/07/02 00:06:29;;;;;;;4.55;2.05;;;21.40;74.00;21.20;99674.00;;;;344658;28;91916;-92
2021/07/02 00:06:41;;;;;;;4.05;2.22;;;21.40;73.90;21.40;99673.00;;;;342665;28;93035;-94
2021/07/02 00:06:53;;;;;;;3.00;2.30;;;21.40;74.00;21.30;99676.00;;;;341161;28;91959;-93
2021/07/02 00:07:05;;;;;;;4.25;2.20;;;21.40;74.10;21.10;99672.00;;;;342720;28;94497;-93
2021/07/02 00:07:16;;;;;;;4.63;2.33;;;21.40;73.80;21.30;99672.00;;;;342675;28;90951;-92
2021/07/02 00:07:28;;;;;;;3.72;2.25;;;21.40;73.80;21.20;99681.00;;;;343020;28;93761;-93
2021/07/02 00:07:40;;;;;;;3.10;2.28;;;21.40;73.60;21.20;99670.00;;;;339968;28;91565;-93
2021/07/02 00:07:52;;;;;;;3.58;2.30;;;21.40;73.60;21.10;99677.00;;;;340469;28;92527;-93
2021/07/02 00:08:04;;;;;;;3.50;2.17;;;21.40;73.60;21.20;99674.00;;;;340298;28;91368;-93
2021/07/02 00:08:16;;;;;;;3.45;2.22;;;21.40;73.80;21.20;99677.00;;;;340400;28;96631;-91
2021/07/02 00:08:28;;;;;;;3.05;2.00;;;21.40;73.90;21.30;99678.00;;;;341641;28;92541;-91
2021/07/02 00:08:40;;;;;;;3.13;2.15;;;21.40;73.90;21.30;99681.00;;;;344212;28;96251;-91
2021/07/02 00:08:52;;;;;;;4.10;1.95;;;21.40;74.00;21.40;99682.00;;;;340338;28;91928;-93
2021/07/02 00:09:03;;;;;;;3.80;1.58;;;21.40;74.00;21.40;99675.00;;;;339099;28;95884;-92
2021/07/02 00:09:15;;;;;;;2.13;1.40;;;21.40;73.90;21.30;99673.00;;;;341335;28;91110;-93
2021/07/02 00:09:27;;;;;;;2.28;1.67;;;21.40;73.70;21.40;99676.00;;;;340442;28;94538;-92
2021/07/02 00:09:39;;;;;;;2.92;1.90;;;21.40;73.70;21.40;99679.00;;;;345165;28;92087;-91
2021/07/02 00:09:50;;;;;;;3.08;1.92;;;21.50;73.70;21.40;99684.00;;;;345819;28;92848;-93
2021/07/02 00:10:04;;;;;;;5.10;2.10;;;21.50;73.60;21.50;99676.00;;;;347253;28;91270;-92
2021/07/02 00:10:16;;;;;;;5.07;2.10;;;21.50;73.70;21.20;99680.00;;;;343000;28;92446;-91
2021/07/02 00:10:28;;;;;;;3.92;2.05;;;21.50;73.70;21.10;99681.00;;;;346764;28;91101;-92
2021/07/02 00:10:40;;;;;;;3.97;2.20;;;21.40;73.50;21.30;99682.00;;;;344248;28;93223;-90
2021/07/02 00:10:53;;;;;;;3.90;2.20;;;21.40;73.50;21.30;99680.00;;;;343786;28;91009;-92
2021/07/02 00:11:05;;;;;;;3.05;2.08;;;21.40;73.60;21.40;99686.00;;;;344227;28;94013;-92
2021/07/02 00:11:17;;;;;;;3.10;1.98;;;21.40;73.70;21.50;99686.00;;;;345531;28;91030;-93
2021/07/02 00:11:28;;;;;;;3.30;2.08;;;21.40;73.80;21.40;99678.00;;;;342352;28;96990;-92
2021/07/02 00:11:40;;;;;;;2.95;1.88;;;21.50;73.90;21.30;99685.00;;;;341894;28;91995;-91
2021/07/02 00:11:52;;;;;;;2.83;1.90;;;21.50;73.70;21.30;99675.00;;;;342837;28;93635;-92
2021/07/02 00:12:04;;;;;;;2.78;1.85;;;21.50;73.70;21.30;99686.00;;;;340120;28;90192;-93
2021/07/02 00:12:16;;;;;;;4.07;2.03;;;21.40;73.70;21.30;99684.00;;;;340147;28;93081;-92
2021/07/02 00:12:27;;;;;;;4.63;2.20;;;21.50;73.90;21.30;99683.00;;;;341606;28;91922;-91
2021/07/02 00:12:39;;;;;;;3.75;2.30;;;21.40;73.80;21.40;99676.00;;;;345615;28;94424;-92
2021/07/02 00:12:52;;;;;;;3.13;2.22;;;21.50;73.90;21.40;99679.00;;;;344207;28;91126;-93
2021/07/02 00:13:04;;;;;;;3.20;2.38;;;21.50;73.90;21.40;99680.00;;;;342827;28;94845;-93
2021/07/02 00:13:15;;;;;;;3.90;2.55;;;21.40;73.80;21.40;99684.00;;;;345600;28;91935;-93
2021/07/02 00:13:27;;;;;;;4.28;2.53;;;21.50;73.90;21.50;99680.00;;;;345736;28;92862;-93
2021/07/02 00:13:39;;;;;;;3.78;2.58;;;21.50;73.90;21.50;99680.00;;;;344048;28;92155;-92
2021/07/02 00:13:51;;;;;;;3.22;2.10;;;21.50;73.80;21.40;99679.00;;;;345977;28;97191;-93
2021/07/02 00:14:04;;;;;;;2.92;1.98;;;21.50;73.80;21.30;99680.00;;;;344761;28;91266;-93
2021/07/02 00:14:16;;;;;;;2.92;2.05;;;21.50;74.50;21.40;99684.00;;;;344369;28;96785;-92
2021/07/02 00:14:27;;;;;;;2.70;2.00;;;21.50;73.90;21.40;99683.00;;;;343104;28;98680;-91
2021/07/02 00:14:39;;;;;;;2.47;1.90;;;21.40;73.80;21.40;99681.00;;;;342646;28;97102;-92
2021/07/02 00:14:51;;;;;;;2.45;1.80;;;21.50;73.70;21.50;99686.00;;;;341925;28;91940;-92
2021/07/02 00:15:04;;;;;;;2.67;1.85;;;21.50;73.80;21.60;99684.00;;;;343207;28;94161;-93
2021/07/02 00:15:16;;;;;;;3.20;2.20;;;21.50;73.80;21.40;99687.00;;;;344710;28;91929;-93
2021/07/02 00:15:28;;;;;;;3.50;2.58;;;21.50;73.60;21.40;99678.00;;;;345795;28;96007;-91
2021/07/02 00:15:39;;;;;;;4.05;2.60;;;21.50;73.60;21.50;99681.00;;;;344654;28;91203;-91
2021/07/02 00:15:51;;;;;;;3.30;2.05;;;21.40;73.50;21.50;99684.00;;;;341643;28;97401;-92
2021/07/02 00:16:03;;;;;;;3.17;2.03;;;21.50;73.70;21.60;99683.00;;;;343228;28;90351;-93
2021/07/02 00:16:15;;;;;;;3.30;2.30;;;21.50;73.60;21.60;99682.00;;;;344650;28;92704;-92
2021/07/02 00:16:27;;;;;;;3.58;2.28;;;21.50;73.60;21.60;99682.00;;;;344389;28;91994;-93
2021/07/02 00:16:39;;;;;;;4.00;1.92;;;21.50;73.50;21.40;99684.00;;;;343445;28;92752;-92
2021/07/02 00:16:51;;;;;;;3.83;1.80;;;21.50;73.50;21.30;99683.00;;;;341795;28;91933;-92
2021/07/02 00:17:03;;;;;;;4.40;2.22;;;21.50;73.50;21.30;99681.00;;;;343276;28;93427;-92
2021/07/02 00:17:15;;;;;;;4.10;2.40;;;21.50;73.40;21.50;99682.00;;;;341886;28;91361;-93
2021/07/02 00:17:27;;;;;;;5.50;2.70;;;21.50;73.20;21.50;99682.00;;;;344502;28;94544;-93
2021/07/02 00:17:39;;;;;;;5.20;2.30;;;21.50;73.20;21.60;99683.00;;;;342761;28;91569;-92
2021/07/02 00:17:51;;;;;;;3.30;2.13;;;21.50;73.20;21.60;99686.00;;;;344824;28;93025;-93
2021/07/02 00:18:03;;;;;;;3.33;1.98;;;21.60;73.10;21.60;99689.00;;;;345747;28;90635;-93
2021/07/02 00:18:15;;;;;;;3.45;2.20;;;21.50;73.10;21.50;99683.00;;;;344244;28;95142;-93
2021/07/02 00:18:27;;;;;;;3.10;2.00;;;21.60;73.20;21.50;99683.00;;;;343522;28;92266;-89
2021/07/02 00:18:38;;;;;;;3.30;2.10;;;21.60;73.20;21.50;99682.00;;;;344021;28;96379;-90
2021/07/02 00:18:50;;;;;;;3.28;2.08;;;21.50;73.20;21.50;99679.00;;;;341381;28;90987;-93
2021/07/02 00:19:02;;;;;;;3.38;2.15;;;21.60;73.30;21.40;99685.00;;;;341761;28;94722;-92
2021/07/02 00:19:14;;;;;;;3.67;2.20;;;21.60;73.40;21.40;99685.00;;;;342773;28;92040;-93
2021/07/02 00:19:26;;;;;;;3.97;2.42;;;21.60;73.40;21.50;99688.00;;;;341792;28;94043;-92
2021/07/02 00:19:38;;;;;;;3.45;2.22;;;21.60;73.40;21.50;99686.00;;;;342747;28;91953;-91
2021/07/02 00:19:49;;;;;;;3.47;2.08;;;21.50;73.30;21.60;99688.00;;;;342793;28;96479;-92
2021/07/02 00:20:02;;;;;;;3.28;2.05;;;21.50;73.30;21.50;99685.00;;;;341614;28;90408;-92
2021/07/02 00:20:14;;;;;;;2.80;2.10;;;21.60;73.30;21.50;99686.00;;;;342844;28;94806;-92
2021/07/02 00:20:26;;;;;;;2.92;2.08;;;21.50;73.20;21.40;99682.00;;;;342909;28;91982;-92
2021/07/02 00:20:38;;;;;;;3.15;2.08;;;21.50;73.20;21.30;99677.00;;;;343760;28;93673;-91
2021/07/02 00:20:50;;;;;;;3.03;2.00;;;21.50;73.20;21.50;99684.00;;;;344132;28;91086;-92
2021/07/02 00:21:01;;;;;;;2.95;1.83;;;21.50;73.40;21.60;99681.00;;;;340849;28;94346;-92
2021/07/02 00:21:13;;;;;;;3.15;2.08;;;21.50;73.60;21.60;99689.00;;;;342899;28;91117;-93
2021/07/02 00:21:25;;;;;;;3.47;2.33;;;21.50;73.70;21.60;99683.00;;;;342764;28;94492;-92
2021/07/02 00:21:37;;;;;;;3.15;2.30;;;21.50;73.60;21.50;99680.00;;;;344064;28;91923;-90
2021/07/02 00:21:49;;;;;;;2.60;1.95;;;21.50;73.60;21.50;99674.00;;;;344392;28;94131;-93
2021/07/02 00:22:01;;;;;;;3.10;1.95;;;21.50;73.60;21.50;99681.00;;;;343056;28;90188;-93
2021/07/02 00:22:12;;;;;;;3.33;1.98;;;21.50;73.60;21.50;99677.00;;;;342770;28;94589;-93
2021/07/02 00:22:25;;;;;;;3.03;2.20;;;21.50;73.60;21.50;99681.00;;;;345483;28;91096;-92
2021/07/02 00:22:36;;;;;;;3.53;2.47;;;21.50;73.80;21.50;99677.00;;;;344170;28;94045;-92
2021/07/02 00:22:49;;;;;;;4.78;2.53;;;21.60;73.70;21.50;99675.00;;;;342573;28;92208;-93
2021/07/02 00:23:01;;;;;;;4.50;2.40;;;21.50;73.50;21.40;99677.00;;;;346896;28;94291;-92
2021/07/02 00:23:12;;;;;;;5.00;2.50;;;21.50;73.40;21.40;99676.00;;;;345701;28;91967;-93
2021/07/02 00:23:24;;;;;;;4.38;2.55;;;21.50;73.50;21.50;99684.00;;;;344499;28;94314;-92
2021/07/02 00:23:36;;;;;;;4.03;2.42;;;21.50;73.60;21.50;99681.00;;;;343767;28;92217;-92
2021/07/02 00:23:48;;;;;;;3.67;2.30;;;21.50;73.50;21.50;99681.00;;;;342875;28;93018;-91
2021/07/02 00:23:59;;;;;;;4.05;2.25;;;21.50;73.50;21.50;99682.00;;;;344362;28;91299;-93
2021/07/02 00:24:11;;;;;;;4.80;2.10;;;21.60;73.40;21.40;99678.00;;;;344270;28;96665;-92
2021/07/02 00:24:23;;;;;;;3.72;2.17;;;21.60;73.30;21.50;99679.00;;;;344094;28;92146;-93
2021/07/02 00:24:35;;;;;;;4.00;2.20;;;21.50;73.40;21.50;99681.00;;;;341192;28;95579;-92
2021/07/02 00:24:46;;;;;;;3.65;2.33;;;21.50;73.30;21.30;99678.00;;;;343791;28;91160;-93
2021/07/02 00:24:59;;;;;;;4.15;2.42;;;21.50;73.30;21.20;99683.00;;;;342753;28;93885;-92
2021/07/02 00:25:12;;;;;;;4.25;2.28;;;21.50;73.40;21.30;99677.00;;;;341226;28;91889;-93
2021/07/02 00:25:23;;;;;;;4.57;2.25;;;21.50;73.60;21.30;99676.00;;;;341230;28;95795;-92
2021/07/02 00:25:38;;;;;;;5.15;2.80;;;21.50;73.80;21.40;99678.00;;;;341297;28;91058;-92
2021/07/02 00:25:50;;;;;;;4.75;2.53;;;21.50;73.90;21.40;99679.00;;;;342689;28;97489;-93
2021/07/02 00:26:02;;;;;;;3.92;1.98;;;21.50;73.90;21.50;99675.00;;;;345479;28;91245;-93
2021/07/02 00:26:14;;;;;;;3.92;1.90;;;21.50;73.90;21.60;99678.00;;;;344390;28;93109;-92
2021/07/02 00:26:25;;;;;;;3.20;2.22;;;21.50;74.00;21.60;99679.00;;;;341888;28;91957;-92
2021/07/02 00:26:38;;;;;;;4.03;2.55;;;21.50;73.90;21.50;99675.00;;;;342214;28;96412;-92
2021/07/02 00:26:49;;;;;;;3.72;2.35;;;21.50;73.90;21.40;99679.00;;;;341471;28;91052;-93
2021/07/02 00:27:01;;;;;;;3.50;2.22;;;21.50;73.70;21.40;99679.00;;;;343567;28;94263;-93
2021/07/02 00:27:13;;;;;;;3.17;2.20;;;21.50;73.60;21.40;99679.00;;;;344227;28;91938;-92
2021/07/02 00:27:25;;;;;;;3.50;2.40;;;21.50;73.60;21.50;99677.00;;;;342967;28;97499;-93
2021/07/02 00:27:37;;;;;;;3.53;2.17;;;21.50;73.50;21.50;99685.00;;;;341729;28;91064;-92
2021/07/02 00:27:48;;;;;;;3.67;2.13;;;21.40;73.60;21.60;99675.00;;;;341638;28;92984;-92
2021/07/02 00:28:00;;;;;;;3.85;2.28;;;21.50;74.20;21.40;99681.00;;;;342939;28;91256;-93
2021/07/02 00:28:12;;;;;;;3.95;2.65;;;21.50;73.60;21.30;99677.00;;;;343064;28;91186;-91
2021/07/02 00:28:24;;;;;;;3.50;2.58;;;21.40;73.50;21.20;99683.00;;;;341553;28;91910;-92
2021/07/02 00:28:37;;;;;;;3.22;2.25;;;21.40;73.60;21.20;99676.00;;;;343073;28;94588;-93
2021/07/02 00:28:49;;;;;;;3.55;2.33;;;21.40;73.50;21.20;99678.00;;;;340357;28;91041;-92
2021/07/02 00:29:00;;;;;;;4.43;2.50;;;21.40;73.30;21.40;99678.00;;;;343261;28;92946;-93
2021/07/02 00:29:12;;;;;;;4.50;2.53;;;21.50;73.60;21.50;99674.00;;;;341700;28;91937;-92
2021/07/02 00:29:24;;;;;;;4.28;2.55;;;21.40;73.50;21.60;99683.00;;;;344105;28;93988;-90
2021/07/02 00:29:37;;;;;;;4.40;2.70;;;21.50;73.50;21.30;99678.00;;;;343108;28;91166;-93
2021/07/02 00:29:48;;;;;;;4.25;2.40;;;21.50;73.50;21.40;99674.00;;;;343119;28;96339;-91
2021/07/02 00:30:00;;;;;;;3.00;2.22;;;21.50;73.60;21.40;99678.00;;;;343491;28;91163;-93
2021/07/02 00:30:13;;;;;;;5.72;2.25;;;21.50;73.80;21.30;99679.00;;;;345923;28;93001;-93
2021/07/02 00:30:25;;;;;;;7.68;2.67;;;21.50;73.70;21.20;99683.00;;;;344405;28;91909;-93
2021/07/02 00:30:36;;;;;;;4.95;2.40;;;21.50;73.60;21.30;99680.00;;;;341680;28;96846;-92
2021/07/02 00:30:51;;;;;;;4.30;2.17;;;21.50;73.60;21.30;99679.00;;;;339938;28;91160;-91
2021/07/02 00:31:02;;;;;;;4.18;2.08;;;21.50;73.60;21.20;99682.00;;;;342825;28;96271;-91
2021/07/02 00:31:14;;;;;;;5.07;1.90;;;21.50;74.00;21.30;99683.00;;;;344401;28;91953;-93
2021/07/02 00:31:26;;;;;;;5.63;2.10;;;21.50;73.50;21.30;99680.00;;;;343277;28;94515;-93
2021/07/02 00:31:38;;;;;;;5.45;2.42;;;21.50;73.60;21.30;99680.00;;;;344262;28;92088;-93
2021/07/02 00:31:50;;;;;;;4.05;2.67;;;21.40;73.50;21.30;99684.00;;;;342821;28;93448;-93
2021/07/02 00:32:02;;;;;;;5.00;2.88;;;21.40;73.50;21.40;99682.00;;;;344432;28;91181;-93
2021/07/02 00:32:14;;;;;;;4.57;2.67;;;21.40;73.50;21.50;99685.00;;;;343382;28;93236;-92
2021/07/02 00:32:26;;;;;;;4.20;2.40;;;21.40;73.40;21.30;99676.00;;;;343208;28;91025;-92
2021/07/02 00:32:38;;;;;;;3.75;2.35;;;21.40;73.30;21.50;99680.00;;;;341841;28;94476;-92
2021/07/02 00:32:50;;;;;;;4.03;2.53;;;21.40;73.30;21.50;99685.00;;;;341703;28;91174;-92
2021/07/02 00:33:02;;;;;;;3.80;2.38;;;21.40;73.30;21.50;99683.00;;;;344406;28;97027;-92
2021/07/02 00:33:14;;;;;;;3.08;2.33;;;21.40;73.20;21.60;99684.00;;;;343282;28;91903;-93
2021/07/02 00:33:26;;;;;;;3.30;2.13;;;21.40;73.10;21.50;99676.00;;;;341897;28;94273;-92
2021/07/02 00:33:38;;;;;;;2.85;1.98;;;21.50;73.10;21.50;99682.00;;;;341784;28;91253;-92
2021/07/02 00:33:49;;;;;;;2.50;1.95;;;21.50;73.20;21.50;99673.00;;;;341786;28;92923;-92
2021/07/02 00:34:01;;;;;;;4.20;2.22;;;21.50;73.20;21.50;99679.00;;;;341905;28;90352;-93
2021/07/02 00:34:14;;;;;;;4.68;2.28;;;21.50;73.10;21.60;99679.00;;;;343304;28;92058;-92
2021/07/02 00:34:25;;;;;;;4.95;2.55;;;21.50;73.10;21.40;99680.00;;;;343236;28;91091;-92
2021/07/02 00:34:37;;;;;;;5.05;2.50;;;21.50;73.10;21.40;99682.00;;;;344833;28;93595;-92
2021/07/02 00:34:49;;;;;;;4.85;2.38;;;21.50;73.00;21.30;99683.00;;;;341771;28;91101;-92
2021/07/02 00:35:01;;;;;;;2.60;2.33;;;21.50;72.90;21.30;99679.00;;;;341669;28;95803;-90
2021/07/02 00:35:13;;;;;;;3.08;2.50;;;21.50;72.90;21.30;99677.00;;;;343352;28;92220;-93
2021/07/02 00:35:25;;;;;;;3.10;2.15;;;21.40;72.90;21.50;99683.00;;;;340196;28;95551;-91
2021/07/02 00:35:37;;;;;;;2.92;1.88;;;21.50;73.10;21.60;99689.00;;;;343135;28;91096;-91
2021/07/02 00:35:49;;;;;;;3.30;1.90;;;21.40;73.10;21.50;99679.00;;;;343457;28;95319;-92
2021/07/02 00:36:01;;;;;;;3.70;2.00;;;21.40;73.00;21.60;99681.00;;;;342188;28;90320;-93
2021/07/02 00:36:13;;;;;;;3.45;2.08;;;21.40;73.00;21.60;99687.00;;;;345976;28;94943;-93
2021/07/02 00:36:24;;;;;;;3.10;2.00;;;21.50;73.20;21.60;99682.00;;;;344654;28;92011;-92
2021/07/02 00:36:36;;;;;;;3.08;1.98;;;21.50;73.20;21.60;99680.00;;;;342101;28;93028;-91
2021/07/02 00:36:48;;;;;;;3.42;2.20;;;21.50;73.20;21.50;99681.00;;;;343439;28;91036;-92
2021/07/02 00:37:00;;;;;;;3.58;2.25;;;21.50;72.90;21.60;99682.00;;;;343294;28;92245;-93
2021/07/02 00:37:11;;;;;;;3.35;2.17;;;21.50;72.90;21.60;99686.00;;;;343413;28;92024;-93
2021/07/02 00:37:23;;;;;;;3.35;1.92;;;21.50;73.00;21.50;99679.00;;;;344970;28;97000;-92
2021/07/02 00:37:35;;;;;;;3.22;1.85;;;21.50;73.10;21.40;99685.00;;;;340731;28;92006;-92
2021/07/02 00:37:47;;;;;;;5.03;1.95;;;21.50;73.20;21.50;99675.00;;;;344863;28;93028;-93
2021/07/02 00:37:58;;;;;;;5.38;1.98;;;21.50;73.10;21.50;99677.00;;;;342060;28;90516;-90
2021/07/02 00:38:10;;;;;;;5.28;2.05;;;21.50;72.90;21.60;99679.00;;;;344610;28;93118;-89
2021/07/02 00:38:22;;;;;;;3.10;2.05;;;21.50;72.90;21.60;99680.00;;;;341770;28;91925;-91
2021/07/02 00:38:34;;;;;;;3.10;2.05;;;21.60;73.00;21.50;99682.00;;;;343006;28;95911;-92
2021/07/02 00:38:45;;;;;;;3.35;2.13;;;21.50;72.90;21.50;99678.00;;;;343115;28;91460;-92
2021/07/02 00:38:57;;;;;;;3.83;2.20;;;21.50;72.90;21.40;99671.00;;;;341683;28;96073;-92
2021/07/02 00:39:09;;;;;;;4.00;2.25;;;21.50;72.90;21.40;99682.00;;;;344590;28;91814;-91
2021/07/02 00:39:21;;;;;;;3.40;2.17;;;21.50;72.80;21.40;99682.00;;;;343339;28;93261;-92
2021/07/02 00:39:33;;;;;;;3.95;2.08;;;21.50;72.90;21.30;99685.00;;;;344177;28;92053;-93
2021/07/02 00:39:45;;;;;;;3.63;1.70;;;21.50;73.10;21.40;99683.00;;;;342042;28;92657;-93
2021/07/02 00:39:56;;;;;;;3.45;1.70;;;21.50;73.20;21.40;99684.00;;;;341633;28;91264;-91
2021/07/02 00:40:09;;;;;;;4.03;2.30;;;21.50;73.10;21.30;99678.00;;;;342047;28;93270;-92
2021/07/02 00:40:21;;;;;;;3.92;2.28;;;21.40;72.90;21.40;99673.00;;;;341490;28;91389;-94
2021/07/02 00:40:32;;;;;;;3.95;2.20;;;21.50;73.00;21.40;99683.00;;;;343170;28;94161;-93
2021/07/02 00:40:47;;;;;;;3.92;2.28;;;21.50;73.10;21.40;99681.00;;;;340388;28;91105;-92
2021/07/02 00:40:59;;;;;;;3.83;2.45;;;21.40;73.00;21.40;99681.00;;;;341591;28;93616;-92
2021/07/02 00:41:11;;;;;;;2.65;2.03;;;21.40;73.00;21.30;99678.00;;;;343031;28;91108;-92
2021/07/02 00:41:22;;;;;;;2.75;1.88;;;21.50;73.70;21.30;99674.00;;;;340419;28;92673;-92
2021/07/02 00:41:35;;;;;;;3.15;1.55;;;21.40;73.00;21.30;99680.00;;;;341393;28;92046;-92
2021/07/02 00:41:47;;;;;;;3.28;1.75;;;21.50;73.10;21.30;99677.00;;;;341341;28;95931;-92
2021/07/02 00:41:58;;;;;;;3.63;2.10;;;21.50;73.30;21.50;99681.00;;;;342700;28;90274;-93
2021/07/02 00:42:10;;;;;;;3.03;2.00;;;21.40;73.10;21.40;99676.00;;;;342978;28;93545;-90
2021/07/02 00:42:22;;;;;;;3.17;2.13;;;21.50;73.00;21.30;99682.00;;;;342550;28;91199;-92
2021/07/02 00:42:34;;;;;;;3.15;2.05;;;21.50;73.00;21.40;99679.00;;;;343915;28;93812;-92
2021/07/02 00:42:46;;;;;;;4.82;2.20;;;21.50;73.00;21.30;99685.00;;;;344134;28;91038;-94
2021/07/02 00:42:58;;;;;;;4.78;2.45;;;21.40;72.90;21.40;99681.00;;;;343954;28;95846;-92
2021/07/02 00:43:10;;;;;;;3.90;2.25;;;21.50;73.00;21.30;99680.00;;;;344043;28;91157;-93
2021/07/02 00:43:22;;;;;;;3.47;2.00;;;21.40;73.00;21.20;99682.00;;;;344160;28;95901;-92
2021/07/02 00:43:36;;;;;;;3.70;2.05;;;21.40;72.80;21.30;99674.00;;;;345598;28;91013;-92
2021/07/02 00:43:52;;;;;;;2.85;2.10;;;21.40;72.90;21.20;99680.00;;;;342747;28;93170;-92
2021/07/02 00:44:04;;;;;;;3.03;2.28;;;21.40;73.10;21.20;99678.00;;;;344031;28;91083;-93
2021/07/02 00:44:16;;;;;;;3.55;2.70;;;21.40;73.10;21.40;99675.00;;;;342635;28;96135;-92
2021/07/02 00:44:39;;;;;;;3.88;2.90;;;21.40;73.10;21.30;99684.00;;;;343505;28;91209;-92
2021/07/02 00:44:50;;;;;;;4.35;2.47;;;21.40;73.10;21.40;99672.00;;;;344237;28;96088;-92
2021/07/02 00:45:03;;;;;;;4.05;2.15;;;21.40;73.10;21.40;99675.00;;;;343704;28;91245;-92
2021/07/02 00:45:15;;;;;;;3.83;2.17;;;21.40;73.10;21.50;99682.00;;;;343017;28;95581;-93
2021/07/02 00:45:27;;;;;;;3.33;2.03;;;21.40;73.10;21.40;99677.00;;;;342852;28;92016;-91
2021/07/02 00:45:38;;;;;;;3.10;1.90;;;21.40;73.10;21.30;99674.00;;;;345930;28;94120;-92
2021/07/02 00:45:50;;;;;;;3.47;1.92;;;21.40;73.10;21.40;99680.00;;;;344388;28;91960;-92
2021/07/02 00:46:02;;;;;;;3.35;2.03;;;21.40;73.10;21.40;99676.00;;;;345909;28;93346;-92
2021/07/02 00:46:14;;;;;;;3.55;2.40;;;21.40;73.10;21.50;99677.00;;;;345535;28;90339;-88
2021/07/02 00:46:26;;;;;;;3.15;2.53;;;21.40;73.20;21.40;99669.00;;;;344247;28;93241;-93
2021/07/02 00:46:38;;;;;;;3.35;2.50;;;21.40;73.20;21.20;99678.00;;;;344202;28;91986;-91
2021/07/02 00:46:50;;;;;;;3.40;2.42;;;21.40;73.40;21.20;99674.00;;;;347019;28;93570;-93
2021/07/02 00:47:02;;;;;;;3.30;2.35;;;21.40;73.40;21.30;99673.00;;;;342728;28;92003;-92
2021/07/02 00:47:15;;;;;;;3.28;2.17;;;21.40;73.50;21.30;99672.00;;;;344129;28;93888;-92
2021/07/02 00:47:27;;;;;;;3.17;2.00;;;21.40;73.50;21.10;99676.00;;;;342591;28;91885;-92
2021/07/02 00:47:39;;;;;;;3.80;2.13;;;21.40;73.50;21.00;99677.00;;;;340715;28;97149;-92
2021/07/02 00:47:51;;;;;;;4.90;2.38;;;21.30;73.60;21.10;99678.00;;;;344177;28;91867;-92
2021/07/02 00:48:03;;;;;;;6.25;2.50;;;21.30;73.40;21.20;99680.00;;;;342405;28;93953;-93
2021/07/02 00:48:15;;;;;;;5.78;2.42;;;21.30;73.40;21.20;99678.00;;;;343912;28;90453;-93
2021/07/02 00:48:27;;;;;;;4.50;2.40;;;21.30;73.40;21.30;99675.00;;;;342483;28;93190;-92
2021/07/02 00:48:39;;;;;;;5.40;2.30;;;21.30;73.20;21.40;99677.00;;;;342772;28;91862;-93
2021/07/02 00:48:50;;;;;;;5.18;2.22;;;21.40;73.20;21.40;99670.00;;;;342808;28;93693;-93
2021/07/02 00:49:02;;;;;;;4.93;2.00;;;21.40;73.30;21.50;99680.00;;;;345225;28;91958;-93
2021/07/02 00:49:14;;;;;;;5.00;2.13;;;21.40;73.40;21.50;99666.00;;;;344285;28;94095;-92
2021/07/02 00:49:26;;;;;;;4.85;2.30;;;21.40;73.30;21.50;99678.00;;;;342873;28;92671;-93
2021/07/02 00:49:38;;;;;;;3.83;2.30;;;21.40;73.30;21.40;99678.00;;;;340267;28;93899;-92
2021/07/02 00:49:50;;;;;;;3.50;2.15;;;21.40;73.30;21.50;99678.00;;;;342502;28;92132;-91
2021/07/02 00:50:06;;;;;;;3.53;1.90;;;21.40;73.20;21.50;99671.00;;;;341720;28;93987;-93
2021/07/02 00:50:18;;;;;;;4.43;2.05;;;21.40;73.10;21.40;99681.00;;;;344118;28;91264;-92
2021/07/02 00:50:30;;;;;;;5.45;2.22;;;21.40;73.10;21.40;99673.00;;;;341033;28;94429;-93
2021/07/02 00:50:45;;;;;;;4.15;2.20;;;21.40;73.10;21.40;99675.00;;;;344583;28;91190;-92
2021/07/02 00:50:57;;;;;;;4.10;2.17;;;21.40;73.10;21.50;99673.00;;;;342969;28;97885;-92
2021/07/02 00:51:09;;;;;;;4.63;2.38;;;21.40;73.20;21.40;99678.00;;;;344215;28;91186;-91
2021/07/02 00:51:21;;;;;;;4.28;2.30;;;21.40;73.40;21.50;99680.00;;;;344405;28;93811;-93
2021/07/02 00:51:34;;;;;;;3.08;1.98;;;21.40;73.30;21.50;99668.00;;;;343086;28;91931;-93
2021/07/02 00:51:46;;;;;;;2.85;1.95;;;21.40;73.20;21.50;99676.00;;;;341663;28;93355;-93
2021/07/02 00:51:58;;;;;;;3.30;2.05;;;21.40;73.20;21.50;99674.00;;;;341588;28;91919;-93
2021/07/02 00:52:10;;;;;;;3.67;2.35;;;21.50;73.30;21.60;99678.00;;;;342897;28;94232;-92
2021/07/02 00:52:22;;;;;;;5.13;2.83;;;21.50;73.40;21.60;99677.00;;;;344176;28;90304;-93
2021/07/02 00:52:34;;;;;;;4.93;2.90;;;21.50;73.40;21.40;99677.00;;;;344181;28;92269;-93
2021/07/02 00:52:47;;;;;;;3.90;2.63;;;21.40;73.20;21.40;99669.00;;;;341319;28;91155;-93
2021/07/02 00:52:58;;;;;;;3.25;2.40;;;21.40;73.20;21.50;99669.00;;;;341444;28;96241;-91
2021/07/02 00:53:12;;;;;;;3.83;2.55;;;21.40;73.10;21.50;99674.00;;;;344013;28;92012;-93
2021/07/02 00:53:23;;;;;;;3.15;1.98;;;21.40;73.20;21.60;99674.00;;;;342274;28;93644;-91
2021/07/02 00:53:35;;;;;;;2.75;2.05;;;21.50;73.30;21.60;99675.00;;;;341616;28;92406;-92
2021/07/02 00:53:47;;;;;;;2.90;2.10;;;21.50;73.20;21.60;99678.00;;;;343849;28;97515;-93
2021/07/02 00:54:00;;;;;;;3.58;2.33;;;21.40;73.70;21.50;99671.00;;;;343517;28;91150;-92
2021/07/02 00:54:12;;;;;;;3.85;2.20;;;21.40;73.10;21.50;99683.00;;;;342600;28;96105;-92
2021/07/02 00:54:24;;;;;;;3.70;2.20;;;21.40;73.10;21.50;99672.00;;;;345365;28;91457;-93